Elk Point, South Dakota
Current Conditions -  °F | °C
As of 2:52 AM on Saturday 22 Nov 2014 (Local Time) from KSUX Reporting Station
Haze Haze  
Wind Chill: 32°   Ceiling: 600
Heat Index: 38°   Visibility: 4mi
Dew Point: 35°   Wind: 8mph
Humidity: 89%   Direction: 160°SSE
Pressure: 29.89"   Gusts: NA
Location:  42.68°N, 96.68°W
Report Text: KSUX 220852Z 16007KT 4SM BR OVC006 03/02 A2989 RMK AO2 SLP129 T00330017 57017
Loading
Personal Weather Stations






























Interactive Weather Map New forecast layout! Learn more

10-Day Weather Forecast

Advertisements
Track Severe Weather on mobile